createdAt,value
2018-02-05T00:00:53.015Z,2.54
2018-02-05T00:03:20.563Z,2.52
2018-02-05T00:05:48.189Z,2.56
2018-02-05T00:08:15.790Z,2.50
2018-02-05T00:10:43.525Z,2.43
2018-02-05T00:13:11.365Z,2.44
2018-02-05T00:15:38.918Z,2.45
2018-02-05T00:18:06.548Z,2.44
2018-02-05T00:20:34.126Z,2.43
2018-02-05T00:23:01.742Z,2.41
2018-02-05T00:25:29.293Z,2.40
2018-02-05T00:27:56.855Z,2.36
2018-02-05T00:30:24.413Z,2.38
2018-02-05T00:32:52.092Z,2.28
2018-02-05T00:35:19.677Z,2.26
2018-02-05T00:37:47.275Z,2.25
2018-02-05T00:40:14.882Z,2.24
2018-02-05T00:42:42.450Z,2.19
2018-02-05T00:45:10.005Z,2.15
2018-02-05T00:47:37.570Z,2.16
2018-02-05T00:50:05.337Z,2.10
2018-02-05T00:52:32.927Z,2.07
2018-02-05T00:55:00.507Z,2.12
2018-02-05T00:57:28.087Z,2.13
2018-02-05T00:59:55.653Z,2.13
2018-02-05T01:02:23.213Z,2.10
2018-02-05T01:04:50.940Z,2.20
2018-02-05T01:07:18.498Z,2.27
2018-02-05T01:09:46.276Z,2.22
2018-02-05T01:12:14.080Z,2.16
2018-02-05T01:14:41.634Z,2.21
2018-02-05T01:17:09.432Z,2.24
2018-02-05T01:19:37.250Z,2.23
2018-02-05T01:22:04.826Z,2.23
2018-02-05T01:24:32.560Z,2.26
2018-02-05T01:27:00.175Z,2.31
2018-02-05T01:29:27.741Z,2.34
2018-02-05T01:31:55.310Z,2.28
2018-02-05T01:34:22.970Z,2.28
2018-02-05T01:36:50.525Z,2.30
2018-02-05T01:39:18.121Z,2.31
2018-02-05T01:41:45.899Z,2.30
2018-02-05T01:44:13.516Z,2.30
2018-02-05T01:46:41.306Z,2.36
2018-02-05T01:49:09.066Z,2.35
2018-02-05T01:51:36.884Z,2.36
2018-02-05T01:54:04.702Z,2.45
2018-02-05T01:56:32.362Z,2.43
2018-02-05T01:58:59.921Z,2.46
2018-02-05T02:01:27.715Z,2.34
2018-02-05T02:03:55.292Z,2.35
2018-02-05T02:06:22.862Z,2.34
2018-02-05T02:08:50.444Z,2.29
2018-02-05T02:11:18.006Z,2.31
2018-02-05T02:13:45.574Z,2.34
2018-02-05T02:16:13.130Z,2.39
2018-02-05T02:18:40.941Z,2.38
2018-02-05T02:21:08.501Z,2.42
2018-02-05T02:23:36.318Z,2.43
2018-02-05T02:26:04.036Z,2.48
2018-02-05T02:28:31.754Z,2.49
2018-02-05T02:30:59.373Z,2.52
2018-02-05T02:33:26.933Z,2.57
2018-02-05T02:35:54.500Z,2.57
2018-02-05T02:38:22.072Z,2.52
2018-02-05T02:40:49.630Z,2.45
2018-02-05T02:43:17.197Z,2.40
2018-02-05T02:45:44.885Z,2.31
2018-02-05T02:48:12.577Z,2.38
2018-02-05T02:50:40.138Z,2.43
2018-02-05T02:53:07.699Z,2.32
2018-02-05T02:55:35.341Z,2.30
2018-02-05T02:58:03.001Z,2.23
2018-02-05T03:00:30.566Z,2.18
2018-02-05T03:02:58.124Z,2.15
2018-02-05T03:05:25.924Z,2.16
2018-02-05T03:07:53.740Z,2.14
2018-02-05T03:10:21.557Z,2.15
2018-02-05T03:12:49.133Z,2.17
2018-02-05T03:15:16.719Z,2.12
2018-02-05T03:17:44.294Z,2.06
2018-02-05T03:20:11.853Z,2.08
2018-02-05T03:22:39.465Z,2.06
2018-02-05T03:25:07.266Z,2.10
2018-02-05T03:27:34.830Z,2.09
2018-02-05T03:30:02.703Z,2.17
2018-02-05T03:32:30.263Z,2.21
2018-02-05T03:34:57.833Z,2.26
2018-02-05T03:37:25.393Z,2.30
2018-02-05T03:39:53.017Z,2.37
2018-02-05T03:42:20.585Z,2.29
2018-02-05T03:44:48.150Z,2.27
2018-02-05T03:47:15.832Z,2.28
2018-02-05T03:49:43.387Z,2.31
2018-02-05T03:52:11.164Z,2.39
2018-02-05T03:54:38.722Z,2.42
2018-02-05T03:57:06.499Z,2.41
2018-02-05T03:59:34.083Z,2.43
2018-02-05T04:02:01.642Z,2.46
2018-02-05T04:04:29.210Z,2.42
2018-02-05T04:07:02.206Z,2.41
2018-02-05T04:09:30.009Z,2.47
2018-02-05T04:11:57.826Z,2.46
2018-02-05T04:14:25.503Z,2.41
2018-02-05T04:16:53.065Z,2.33
2018-02-05T04:19:20.617Z,2.23
2018-02-05T04:21:48.190Z,2.28
2018-02-05T04:24:15.923Z,2.30
2018-02-05T04:26:43.489Z,2.28
2018-02-05T04:29:11.066Z,2.31
2018-02-05T04:31:38.652Z,2.37
2018-02-05T04:34:06.355Z,2.43
2018-02-05T04:36:34.098Z,2.48
2018-02-05T04:39:01.702Z,2.53
2018-02-05T04:41:29.445Z,2.52
2018-02-05T04:43:57.261Z,2.55
2018-02-05T04:46:24.978Z,2.58
2018-02-05T04:48:52.796Z,2.59
2018-02-05T04:51:20.366Z,2.54
2018-02-05T04:53:48.134Z,2.46
2018-02-05T04:56:15.698Z,2.47
2018-02-05T04:58:43.254Z,2.40
2018-02-05T05:01:10.796Z,2.37
2018-02-05T05:03:38.490Z,2.40
2018-02-05T05:06:06.322Z,2.38
2018-02-05T05:08:33.889Z,2.41
2018-02-05T05:11:01.454Z,2.43
2018-02-05T05:13:29.022Z,2.40
2018-02-05T05:15:56.581Z,2.36
2018-02-05T05:18:24.412Z,2.30
2018-02-05T05:20:52.231Z,2.30
2018-02-05T05:23:19.858Z,2.23
2018-02-05T05:25:47.433Z,2.19
2018-02-05T05:28:15.162Z,2.13
2018-02-05T05:30:42.736Z,2.06
2018-02-05T05:33:10.333Z,1.98
2018-02-05T05:35:38.050Z,1.98
2018-02-05T05:38:05.611Z,2.03
2018-02-05T05:40:33.392Z,2.00
2018-02-05T05:43:00.945Z,1.98
2018-02-05T05:45:28.545Z,2.00
2018-02-05T05:47:56.117Z,1.98
2018-02-05T05:50:23.848Z,2.05
2018-02-05T05:52:51.410Z,2.06
2018-02-05T05:55:18.973Z,1.99
2018-02-05T05:57:46.800Z,2.08
2018-02-05T06:00:14.518Z,2.12
2018-02-05T06:02:42.077Z,2.03
2018-02-05T06:05:09.666Z,1.99
2018-02-05T06:07:37.228Z,2.01
2018-02-05T06:10:04.829Z,1.93
2018-02-05T06:12:32.393Z,1.98
2018-02-05T06:15:00.028Z,2.07
2018-02-05T06:17:27.586Z,2.14
2018-02-05T06:19:55.166Z,2.21
2018-02-05T06:22:22.734Z,2.31
2018-02-05T06:24:50.287Z,2.43
2018-02-05T06:27:17.845Z,2.62
2018-02-05T06:29:45.631Z,2.73
2018-02-05T06:32:13.190Z,2.85
2018-02-05T06:34:40.765Z,2.94
2018-02-05T06:37:08.476Z,2.98
2018-02-05T06:39:36.068Z,3.03
2018-02-05T06:42:03.821Z,3.14
2018-02-05T06:44:31.437Z,3.13
2018-02-05T06:46:59.262Z,3.10
2018-02-05T06:49:27.075Z,3.16
2018-02-05T06:55:13.381Z,3.36
2018-02-05T06:57:40.958Z,3.53
2018-02-05T07:00:08.582Z,3.72
2018-02-05T07:02:36.235Z,4.41
2018-02-05T07:05:03.849Z,5.62
2018-02-05T07:07:31.585Z,7.11
2018-02-05T07:09:59.153Z,8.68
2018-02-05T07:12:26.920Z,9.57
2018-02-05T07:14:54.518Z,10.46
2018-02-05T07:17:22.263Z,10.39
2018-02-05T07:19:50.070Z,10.58
2018-02-05T07:22:17.633Z,11.08
2018-02-05T07:24:45.201Z,12.24
2018-02-05T07:27:12.782Z,13.21
2018-02-05T07:29:40.351Z,13.85
2018-02-05T07:32:08.001Z,14.41
2018-02-05T07:34:35.848Z,14.39
2018-02-05T07:37:03.460Z,14.01
2018-02-05T07:39:31.215Z,13.95
2018-02-05T07:42:00.413Z,13.59
2018-02-05T07:44:28.747Z,13.13
2018-02-05T07:46:56.496Z,12.20
2018-02-05T07:49:24.164Z,11.83
2018-02-05T07:51:53.506Z,10.81
2018-02-05T07:54:21.730Z,10.69
2018-02-05T07:56:49.309Z,10.79
2018-02-05T07:59:17.075Z,10.71
2018-02-05T08:01:44.764Z,11.14
2018-02-05T08:04:12.503Z,10.93
2018-02-05T08:06:40.532Z,10.91
2018-02-05T08:09:08.104Z,11.48
2018-02-05T08:11:36.389Z,12.01
2018-02-05T08:14:04.045Z,12.37
2018-02-05T08:16:32.866Z,12.17
2018-02-05T08:19:00.438Z,11.31
2018-02-05T08:21:28.246Z,11.69
2018-02-05T08:23:55.850Z,12.32
2018-02-05T08:26:23.419Z,12.32
2018-02-05T08:28:50.988Z,11.61
2018-02-05T08:31:18.605Z,11.34
2018-02-05T08:33:46.189Z,11.52
2018-02-05T08:36:13.759Z,11.52
2018-02-05T08:38:41.349Z,11.29
2018-02-05T08:41:09.146Z,11.70
2018-02-05T08:43:36.707Z,11.66
2018-02-05T08:46:04.270Z,11.25
2018-02-05T08:48:32.343Z,11.48
2018-02-05T08:51:00.061Z,11.93
2018-02-05T08:53:27.633Z,12.61
2018-02-05T08:55:55.194Z,12.69
2018-02-05T08:58:22.809Z,12.85
2018-02-05T09:00:50.374Z,13.10
2018-02-05T09:03:18.110Z,11.67
2018-02-05T09:05:45.685Z,11.25
2018-02-05T09:08:13.266Z,11.11
2018-02-05T09:10:40.832Z,11.45
2018-02-05T09:13:08.621Z,12.00
2018-02-05T09:15:36.440Z,13.05
2018-02-05T09:18:04.038Z,13.73
2018-02-05T09:20:31.630Z,14.42
2018-02-05T09:22:59.202Z,14.53
2018-02-05T09:25:27.012Z,14.87
2018-02-05T09:27:54.597Z,14.69
2018-02-05T09:30:22.301Z,14.97
2018-02-05T09:32:50.172Z,14.04
2018-02-05T09:35:17.739Z,13.90
2018-02-05T09:37:45.395Z,14.31
2018-02-05T09:40:12.993Z,15.00
2018-02-05T09:42:40.558Z,15.03
2018-02-05T09:45:08.356Z,15.16
2018-02-05T09:47:35.917Z,14.36
2018-02-05T09:50:03.793Z,14.45
2018-02-05T09:52:31.350Z,14.90
2018-02-05T09:54:58.914Z,14.61
2018-02-05T09:57:26.623Z,13.72
2018-02-05T09:59:54.197Z,13.75
2018-02-05T10:02:21.867Z,13.38
2018-02-05T10:04:49.692Z,12.93
2018-02-05T10:07:17.298Z,12.65
2018-02-05T10:09:45.037Z,12.62
2018-02-05T10:12:12.593Z,12.87
2018-02-05T10:14:40.169Z,13.02
2018-02-05T10:17:07.733Z,12.71
2018-02-05T10:19:35.301Z,13.31
2018-02-05T10:22:03.038Z,13.95
2018-02-05T10:24:30.735Z,14.54
2018-02-05T10:26:58.310Z,14.00
2018-02-05T10:29:25.892Z,13.16
2018-02-05T10:31:53.487Z,12.88
2018-02-05T10:34:21.115Z,13.42
2018-02-05T10:36:48.775Z,14.06
2018-02-05T10:39:16.350Z,13.89
2018-02-05T10:41:44.169Z,14.47
2018-02-05T10:44:11.989Z,14.86
2018-02-05T10:46:39.563Z,15.28
2018-02-05T10:49:07.315Z,14.85
2018-02-05T10:51:35.043Z,14.76
2018-02-05T10:54:02.605Z,14.51
2018-02-05T10:56:30.190Z,13.58
2018-02-05T10:58:57.910Z,13.28
2018-02-05T11:01:25.598Z,13.30
2018-02-05T11:03:53.164Z,13.58
2018-02-05T11:06:20.770Z,14.19
2018-02-05T11:08:48.343Z,14.19
2018-02-05T11:11:15.965Z,14.21
2018-02-05T11:13:43.588Z,13.85
2018-02-05T11:16:11.321Z,13.94
2018-02-05T11:18:38.915Z,13.83
2018-02-05T11:21:06.657Z,13.69
2018-02-05T11:23:34.672Z,13.92
2018-02-05T11:26:02.495Z,14.45
2018-02-05T11:28:30.104Z,14.55
2018-02-05T11:30:57.814Z,14.94
2018-02-05T11:33:25.373Z,15.36
2018-02-05T11:35:52.955Z,15.47
2018-02-05T11:38:20.571Z,15.73
2018-02-05T11:40:48.352Z,15.93
2018-02-05T11:43:15.916Z,15.31
2018-02-05T11:45:43.485Z,15.74
2018-02-05T11:48:11.064Z,16.38
2018-02-05T11:50:38.874Z,15.84
2018-02-05T11:53:06.445Z,15.42
2018-02-05T11:55:33.994Z,15.63
2018-02-05T11:58:01.609Z,16.22
2018-02-05T12:00:29.161Z,15.34
2018-02-05T12:02:56.726Z,15.14
2018-02-05T12:05:24.372Z,15.80
2018-02-05T12:07:54.198Z,16.05
2018-02-05T12:10:22.427Z,15.82
2018-02-05T12:12:50.130Z,14.96
2018-02-05T12:15:17.964Z,15.27
2018-02-05T12:17:45.503Z,15.94
2018-02-05T12:20:13.301Z,15.36
2018-02-05T12:22:40.869Z,15.18
2018-02-05T12:25:08.635Z,15.63
2018-02-05T12:27:36.219Z,15.66
2018-02-05T12:30:03.911Z,16.02
2018-02-05T12:32:31.561Z,15.86
2018-02-05T12:34:59.113Z,16.49
2018-02-05T12:37:26.825Z,16.39
2018-02-05T12:39:54.394Z,17.09
2018-02-05T12:42:21.950Z,17.44
2018-02-05T12:44:49.779Z,17.78
2018-02-05T12:47:17.354Z,17.49
2018-02-05T12:49:44.965Z,17.34
2018-02-05T12:52:12.694Z,17.77
2018-02-05T12:54:40.381Z,17.56
2018-02-05T12:57:08.674Z,18.27
2018-02-05T12:59:37.114Z,18.25
2018-02-05T13:02:06.721Z,18.25
2018-02-05T13:04:39.870Z,18.55
2018-02-05T13:07:07.674Z,18.57
2018-02-05T13:09:35.392Z,18.53
2018-02-05T13:12:02.999Z,18.55
2018-02-05T13:14:30.617Z,18.82
2018-02-05T13:16:58.185Z,18.86
2018-02-05T13:19:25.764Z,19.00
2018-02-05T13:21:53.325Z,19.12
2018-02-05T13:24:21.098Z,18.73
2018-02-05T13:26:48.657Z,19.15
2018-02-05T13:29:16.209Z,18.40
2018-02-05T13:31:43.838Z,18.19
2018-02-05T13:34:11.400Z,18.58
2018-02-05T13:36:38.970Z,18.38
2018-02-05T13:39:06.519Z,18.69
2018-02-05T13:41:34.125Z,19.06
2018-02-05T13:44:01.733Z,19.13
2018-02-05T13:46:29.458Z,18.70
2018-02-05T13:48:57.300Z,18.61
2018-02-05T13:51:24.874Z,18.68
2018-02-05T13:53:52.437Z,18.64
2018-02-05T13:56:20.018Z,18.46
2018-02-05T13:58:47.630Z,18.44
2018-02-05T14:01:15.196Z,18.43
2018-02-05T14:03:42.984Z,18.53
2018-02-05T14:06:10.556Z,18.95
2018-02-05T14:08:38.122Z,18.48
2018-02-05T14:11:05.827Z,18.60
2018-02-05T14:13:33.393Z,18.17
2018-02-05T14:16:01.015Z,17.54
2018-02-05T14:18:28.584Z,17.77
2018-02-05T14:20:56.145Z,17.69
2018-02-05T14:23:23.885Z,16.99
2018-02-05T14:25:51.646Z,17.17
2018-02-05T14:28:19.216Z,17.02
2018-02-05T14:30:46.780Z,16.99
2018-02-05T14:33:14.417Z,17.29
2018-02-05T14:35:42.108Z,17.64
2018-02-05T14:38:09.682Z,17.13
2018-02-05T14:40:37.453Z,16.51
2018-02-05T14:43:05.013Z,16.14
2018-02-05T14:45:32.586Z,16.34
2018-02-05T14:48:00.132Z,15.93
2018-02-05T14:50:27.738Z,15.80
2018-02-05T14:52:55.317Z,15.62
2018-02-05T14:55:23.060Z,15.22
2018-02-05T14:57:50.634Z,14.94
2018-02-05T15:00:18.396Z,14.65
2018-02-05T15:02:46.134Z,14.27
2018-02-05T15:05:13.722Z,13.70
2018-02-05T15:07:41.345Z,12.17
2018-02-05T15:10:08.969Z,11.30
2018-02-05T15:12:36.786Z,10.37
2018-02-05T15:15:04.377Z,9.61
2018-02-05T15:17:31.922Z,9.01
2018-02-05T15:19:59.740Z,8.43
2018-02-05T15:22:27.330Z,7.97
2018-02-05T15:24:55.175Z,7.82
2018-02-05T15:27:22.865Z,7.56
2018-02-05T15:29:50.440Z,7.46
2018-02-05T15:32:18.115Z,7.31
2018-02-05T15:34:45.740Z,7.10
2018-02-05T15:37:13.568Z,6.99
2018-02-05T15:39:41.130Z,6.83
2018-02-05T15:42:08.794Z,6.71
2018-02-05T15:44:36.515Z,6.55
2018-02-05T15:47:04.139Z,6.40
2018-02-05T15:49:32.083Z,6.27
2018-02-05T15:51:59.876Z,6.30
2018-02-05T15:54:27.641Z,6.28
2018-02-05T15:56:55.239Z,6.31
2018-02-05T15:59:22.919Z,6.34
2018-02-05T16:01:50.478Z,6.23
2018-02-05T16:04:18.038Z,6.25
2018-02-05T16:06:45.602Z,6.26
2018-02-05T16:09:13.147Z,6.16
2018-02-05T16:11:40.926Z,6.06
2018-02-05T16:14:08.485Z,5.94
2018-02-05T16:16:36.256Z,5.86
2018-02-05T16:19:04.161Z,5.79
2018-02-05T16:21:31.683Z,5.72
2018-02-05T16:23:59.396Z,5.70
2018-02-05T16:26:27.013Z,5.62
2018-02-05T16:28:54.792Z,5.55
2018-02-05T16:31:22.385Z,5.47
2018-02-05T16:33:50.188Z,5.37
2018-02-05T16:36:17.750Z,5.39
2018-02-05T16:38:45.519Z,5.38
2018-02-05T16:41:13.097Z,5.33
2018-02-05T16:43:40.852Z,5.27
2018-02-05T16:46:08.498Z,5.24
2018-02-05T16:48:36.063Z,5.20
2018-02-05T16:51:03.694Z,5.09
2018-02-05T16:53:31.409Z,5.06
2018-02-05T16:55:58.974Z,5.09
2018-02-05T16:58:26.613Z,5.06
2018-02-05T17:00:54.483Z,5.02
2018-02-05T17:03:22.301Z,5.03
2018-02-05T17:05:50.115Z,5.03
2018-02-05T17:08:17.669Z,5.00
2018-02-05T17:10:45.297Z,4.98
2018-02-05T17:13:13.073Z,4.96
2018-02-05T17:15:40.682Z,4.91
2018-02-05T17:18:08.705Z,4.83
2018-02-05T17:20:36.528Z,4.84
2018-02-05T17:23:04.152Z,4.86
2018-02-05T17:25:31.965Z,4.86
2018-02-05T17:27:59.517Z,4.77
2018-02-05T17:30:27.098Z,4.73
2018-02-05T17:32:54.690Z,4.71
2018-02-05T17:35:22.262Z,4.68
2018-02-05T17:37:50.054Z,4.68
2018-02-05T17:40:17.873Z,4.68
2018-02-05T17:42:45.590Z,4.67
2018-02-05T17:45:13.199Z,4.58
2018-02-05T17:47:40.777Z,4.53
2018-02-05T17:50:08.333Z,4.53
2018-02-05T17:52:36.085Z,4.47
2018-02-05T17:55:03.881Z,4.39
2018-02-05T17:57:31.650Z,4.31
2018-02-05T17:59:59.353Z,4.28
2018-02-05T18:02:27.035Z,4.28
2018-02-05T18:04:54.605Z,4.24
2018-02-05T18:07:22.177Z,4.21
2018-02-05T18:09:49.761Z,4.16
2018-02-05T18:12:17.332Z,4.05
2018-02-05T18:14:44.993Z,4.02
2018-02-05T18:17:12.549Z,3.93
2018-02-05T18:19:40.115Z,3.89
2018-02-05T18:22:07.690Z,3.88
2018-02-05T18:24:35.496Z,3.91
2018-02-05T18:27:03.105Z,3.86
2018-02-05T18:29:30.723Z,3.89
2018-02-05T18:31:58.349Z,3.91
2018-02-05T18:34:26.189Z,3.94
2018-02-05T18:36:53.765Z,3.80
2018-02-05T18:39:21.504Z,3.80
2018-02-05T18:41:49.301Z,3.75
2018-02-05T18:44:16.886Z,3.77
2018-02-05T18:46:44.650Z,3.70
2018-02-05T18:49:12.258Z,3.64
2018-02-05T18:51:39.817Z,3.54
2018-02-05T18:54:07.387Z,3.49
2018-02-05T18:56:44.677Z,3.49
2018-02-05T18:59:12.482Z,3.47
2018-02-05T19:01:40.704Z,3.46
2018-02-05T19:04:08.523Z,3.49
2018-02-05T19:06:36.109Z,3.52
2018-02-05T19:09:03.782Z,3.43
2018-02-05T19:11:31.418Z,3.40
2018-02-05T19:13:58.977Z,3.41
2018-02-05T19:16:26.545Z,3.38
2018-02-05T19:18:54.129Z,3.31
2018-02-05T19:21:21.697Z,3.34
2018-02-05T19:23:49.265Z,3.35
2018-02-05T19:26:16.835Z,3.28
2018-02-05T19:28:44.494Z,3.23
2018-02-05T19:31:12.074Z,3.24
2018-02-05T19:33:39.658Z,3.27
2018-02-05T19:36:07.226Z,3.20
2018-02-05T19:38:34.802Z,3.12
2018-02-05T19:41:02.373Z,3.16
2018-02-05T19:43:29.930Z,3.21
2018-02-05T19:45:57.721Z,3.15
2018-02-05T19:48:25.283Z,3.05
2018-02-05T19:50:52.842Z,3.01
2018-02-05T19:53:20.577Z,3.00
2018-02-05T19:55:48.174Z,2.98
2018-02-05T19:58:15.799Z,2.95
2018-02-05T20:00:43.429Z,2.90
2018-02-05T20:03:11.094Z,2.83
2018-02-05T20:05:38.677Z,2.68
2018-02-05T20:08:06.485Z,2.52
2018-02-05T20:10:34.304Z,2.43
2018-02-05T20:13:02.022Z,2.43
2018-02-05T20:15:29.837Z,2.52
2018-02-05T20:17:57.394Z,2.55
2018-02-05T20:20:25.014Z,2.53
2018-02-05T20:22:52.795Z,2.52
2018-02-05T20:25:20.359Z,2.48
2018-02-05T20:27:48.130Z,2.49
2018-02-05T20:30:15.699Z,2.51
2018-02-05T20:32:43.273Z,2.53
2018-02-05T20:35:10.881Z,2.53
2018-02-05T20:37:38.802Z,2.46
2018-02-05T20:40:06.534Z,2.42
2018-02-05T20:42:34.132Z,2.31
2018-02-05T20:45:01.718Z,2.27
2018-02-05T20:47:29.279Z,2.20
2018-02-05T20:49:56.860Z,2.17
2018-02-05T20:52:24.423Z,2.10
2018-02-05T20:54:52.328Z,2.03
2018-02-05T20:57:19.890Z,2.09
2018-02-05T20:59:47.581Z,2.14
2018-02-05T21:02:15.163Z,2.11
2018-02-05T21:04:42.726Z,2.21
2018-02-05T21:07:10.300Z,2.23
2018-02-05T21:09:37.862Z,2.23
2018-02-05T21:12:05.653Z,2.20
2018-02-05T21:14:33.213Z,2.12
2018-02-05T21:17:00.771Z,2.11
2018-02-05T21:19:28.335Z,2.05
2018-02-05T21:21:55.914Z,1.94
2018-02-05T21:24:23.495Z,1.82
2018-02-05T21:26:51.057Z,1.85
2018-02-05T21:29:18.763Z,1.83
2018-02-05T21:31:46.410Z,1.88
2018-02-05T21:34:14.048Z,1.89
2018-02-05T21:36:41.618Z,1.99
2018-02-05T21:39:09.211Z,2.14
2018-02-05T21:41:36.945Z,2.23
2018-02-05T21:44:04.531Z,2.31
2018-02-05T21:46:32.126Z,2.35
2018-02-05T21:48:59.899Z,2.43
2018-02-05T21:51:27.595Z,2.45
2018-02-05T21:53:55.335Z,2.48
2018-02-05T21:56:22.898Z,2.46
2018-02-05T21:58:50.467Z,2.39
2018-02-05T22:01:18.075Z,2.37
2018-02-05T22:03:45.906Z,2.36
2018-02-05T22:06:13.494Z,2.32
2018-02-05T22:08:41.245Z,2.33
2018-02-05T22:11:08.853Z,2.30
2018-02-05T22:13:36.579Z,2.35
2018-02-05T22:16:04.167Z,2.37
2018-02-05T22:18:31.721Z,2.42
2018-02-05T22:20:59.325Z,2.39
2018-02-05T22:23:27.030Z,2.43
2018-02-05T22:25:54.746Z,2.44
2018-02-05T22:28:22.310Z,2.39
2018-02-05T22:30:49.865Z,2.43
2018-02-05T22:33:17.534Z,2.43
2018-02-05T22:35:45.110Z,2.36
2018-02-05T22:38:12.737Z,2.38
2018-02-05T22:40:40.447Z,2.39
2018-02-05T22:43:08.081Z,2.43
2018-02-05T22:45:35.812Z,2.45
2018-02-05T22:48:03.398Z,2.44
2018-02-05T22:50:31.107Z,2.43
2018-02-05T22:52:58.757Z,2.38
2018-02-05T22:55:26.382Z,2.39
2018-02-05T22:57:54.102Z,2.34
2018-02-05T23:00:21.820Z,2.37
2018-02-05T23:02:49.381Z,2.37
2018-02-05T23:05:16.943Z,2.43
2018-02-05T23:07:44.508Z,2.41
2018-02-05T23:12:38.998Z,2.50
2018-02-05T23:15:06.591Z,2.54
2018-02-05T23:17:34.147Z,2.53
2018-02-05T23:20:01.730Z,2.45
2018-02-05T23:22:29.278Z,2.43
2018-02-05T23:24:56.895Z,2.46
2018-02-05T23:27:24.714Z,2.52
2018-02-05T23:29:52.532Z,2.54
2018-02-05T23:32:20.097Z,2.62
2018-02-05T23:34:47.658Z,2.65
2018-02-05T23:37:15.262Z,2.60
2018-02-05T23:39:42.818Z,2.55
2018-02-05T23:42:10.400Z,2.59
2018-02-05T23:44:38.139Z,2.63
2018-02-05T23:47:05.761Z,2.55
2018-02-05T23:49:33.453Z,2.59
2018-02-05T23:52:01.014Z,2.60
2018-02-05T23:54:28.911Z,2.55
2018-02-05T23:56:56.621Z,2.52
2018-02-05T23:59:24.348Z,2.56
